Time;durP1;ratioP1;P1;durP2;ratioP2;P2;SDS_P1;SDS_P2;PMS_P1;PMS_P2;Temp;Humidity;BMP_temperature;BMP_pressure;BME280_temperature;BME280_humidity;BME280_pressure;Samples;Min_cycle;Max_cycle;Signal;HPM_P1;HPM_P2
2022/05/10 00:00:24;;;;;;;13.25;6.13;;;14.30;90.30;;;;;;2215345;64;20164;-69
2022/05/10 00:03:02;;;;;;;11.77;5.32;;;14.30;90.70;;;;;;2215818;64;20193;-68
2022/05/10 00:05:42;;;;;;;10.38;5.70;;;14.20;90.90;;;;;;2215737;64;20678;-69
2022/05/10 00:08:22;;;;;;;14.43;6.28;;;14.10;91.20;;;;;;2215802;64;20614;-69
2022/05/10 00:10:58;;;;;;;9.80;6.13;;;14.00;91.60;;;;;;2215735;64;20176;-68
2022/05/10 00:13:35;;;;;;;11.18;6.38;;;14.00;92.00;;;;;;2215768;64;20317;-68
2022/05/10 00:16:18;;;;;;;10.63;6.68;;;13.90;92.30;;;;;;2215631;64;20369;-69
2022/05/10 00:18:56;;;;;;;14.85;7.25;;;13.80;92.50;;;;;;2215632;64;20590;-69
2022/05/10 00:21:39;;;;;;;9.82;6.68;;;13.80;92.90;;;;;;2215650;64;20716;-68
2022/05/10 00:24:20;;;;;;;12.35;6.38;;;13.80;93.00;;;;;;2215627;64;20193;-69
2022/05/10 00:27:00;;;;;;;14.27;6.63;;;13.70;93.20;;;;;;2215552;64;20240;-69
2022/05/10 00:29:38;;;;;;;15.18;7.25;;;13.70;93.50;;;;;;2215658;64;20230;-69
2022/05/10 00:32:17;;;;;;;15.35;7.22;;;13.70;93.70;;;;;;2215642;64;20301;-69
2022/05/10 00:34:55;;;;;;;9.80;7.07;;;13.60;94.00;;;;;;2215623;64;20232;-68
2022/05/10 00:37:35;;;;;;;11.50;6.40;;;13.60;94.30;;;;;;2215535;64;20163;-68
2022/05/10 00:40:16;;;;;;;12.48;7.47;;;13.60;94.20;;;;;;2215554;64;20254;-68
2022/05/10 00:43:07;;;;;;;11.80;6.30;;;13.30;94.30;;;;;;2215620;64;20728;-68
2022/05/10 00:46:25;;;;;;;12.43;7.43;;;13.50;94.60;;;;;;2215563;64;20189;-68
2022/05/10 00:49:41;;;;;;;10.85;6.93;;;13.50;94.50;;;;;;2215573;64;20808;-69
2022/05/10 00:52:45;;;;;;;13.32;7.82;;;13.50;94.40;;;;;;2191646;65;20166;-69
2022/05/10 00:55:29;;;;;;;;;;;13.40;94.40;;;;;;2191921;65;20190;-69
2022/05/10 00:58:33;;;;;;;11.88;6.35;;;13.40;93.90;;;;;;2191506;65;20175;-68
2022/05/10 01:01:16;;;;;;;11.95;5.78;;;13.30;94.10;;;;;;2191569;65;20297;-68
2022/05/10 01:03:59;;;;;;;12.05;6.63;;;13.30;94.30;;;;;;2191612;65;20203;-69
2022/05/10 01:06:57;;;;;;;10.05;5.78;;;13.20;94.50;;;;;;2191658;65;20328;-68
2022/05/10 01:09:57;;;;;;;9.98;6.35;;;13.20;94.60;;;;;;2191300;65;20194;-69
2022/05/10 01:12:51;;;;;;;8.13;6.32;;;13.10;94.60;;;;;;2191280;65;20723;-68
2022/05/10 01:15:28;;;;;;;10.02;6.18;;;13.10;94.80;;;;;;2191511;65;20832;-68
2022/05/10 01:18:04;;;;;;;12.43;6.55;;;13.10;94.80;;;;;;2191523;65;20198;-69
2022/05/10 01:20:46;;;;;;;10.65;6.35;;;13.10;94.90;;;;;;2191503;65;20158;-68
2022/05/10 01:23:45;;;;;;;10.00;6.30;;;13.10;94.90;;;;;;2191385;65;20178;-68
2022/05/10 01:26:33;;;;;;;9.15;5.65;;;13.20;94.90;;;;;;2191449;65;20256;-68
2022/05/10 01:29:52;;;;;;;8.95;6.10;;;13.10;94.90;;;;;;2202648;64;20326;-68
2022/05/10 01:35:44;;;;;;;8.80;5.68;;;13.20;95.00;;;;;;2215318;64;20411;-68
2022/05/10 01:38:46;;;;;;;9.15;5.65;;;13.20;94.90;;;;;;2215289;64;20186;-68
2022/05/10 01:42:00;;;;;;;12.35;5.97;;;13.20;94.80;;;;;;2215306;64;20503;-68
2022/05/10 01:44:59;;;;;;;8.55;5.50;;;13.20;94.80;;;;;;2215244;64;20156;-68
2022/05/10 01:47:59;;;;;;;13.77;5.95;;;13.20;94.80;;;;;;2215241;64;20199;-68
2022/05/10 01:50:57;;;;;;;11.32;5.40;;;13.30;94.60;;;;;;2215327;64;20325;-69
2022/05/10 01:53:36;;;;;;;13.27;5.43;;;13.40;94.50;;;;;;2215188;64;20176;-68
2022/05/10 01:56:20;;;;;;;9.57;5.60;;;13.40;94.50;;;;;;2215132;64;20188;-69
2022/05/10 01:58:58;;;;;;;8.02;4.75;;;13.40;94.50;;;;;;2215097;64;20172;-69
2022/05/10 02:01:41;;;;;;;11.55;5.22;;;13.40;94.50;;;;;;2215120;64;20176;-69
2022/05/10 02:04:28;;;;;;;10.18;4.65;;;13.40;94.40;;;;;;2215245;64;20176;-68
2022/05/10 02:07:21;;;;;;;7.45;4.43;;;13.40;94.40;;;;;;2215115;64;20333;-68
2022/05/10 02:10:38;;;;;;;11.10;5.15;;;13.80;94.30;;;;;;2215134;64;20168;-69
2022/05/10 02:13:22;;;;;;;11.70;5.82;;;13.50;94.00;;;;;;2214973;64;20176;-68
2022/05/10 02:16:21;;;;;;;11.77;5.43;;;13.60;93.90;;;;;;2215018;64;20168;-69
2022/05/10 02:19:18;;;;;;;10.52;5.68;;;13.60;93.80;;;;;;2215059;64;20244;-68
2022/05/10 02:21:59;;;;;;;14.23;5.95;;;13.70;93.60;;;;;;2214778;64;20281;-69
2022/05/10 02:24:46;;;;;;;10.23;6.65;;;13.70;93.50;;;;;;2215827;64;20164;-69
2022/05/10 02:27:30;;;;;;;10.98;4.82;;;13.80;93.60;;;;;;2216271;64;20280;-69
2022/05/10 02:30:09;;;;;;;9.23;5.55;;;13.60;93.50;;;;;;2216233;64;20207;-68
2022/05/10 02:33:07;;;;;;;11.02;6.13;;;13.60;93.60;;;;;;2216179;64;20186;-69
2022/05/10 02:35:57;;;;;;;9.20;5.28;;;13.60;93.60;;;;;;2216252;64;20163;-68
2022/05/10 02:38:37;;;;;;;11.63;6.30;;;13.60;93.60;;;;;;2216300;64;20187;-69
2022/05/10 02:41:17;;;;;;;10.38;5.60;;;13.50;93.50;;;;;;2216260;64;20602;-69
2022/05/10 02:44:00;;;;;;;9.98;5.63;;;13.50;93.60;;;;;;2216260;64;20237;-69
2022/05/10 02:46:37;;;;;;;9.85;5.80;;;13.50;93.60;;;;;;2216122;64;20206;-69
2022/05/10 02:49:16;;;;;;;7.68;5.25;;;13.50;93.60;;;;;;2216174;64;20206;-68
2022/05/10 02:51:57;;;;;;;12.43;6.22;;;13.40;93.60;;;;;;2216197;64;20171;-69
2022/05/10 02:54:36;;;;;;;12.80;5.55;;;13.40;93.80;;;;;;2216147;64;20253;-69
2022/05/10 02:57:14;;;;;;;7.53;5.53;;;13.40;93.90;;;;;;2215992;64;20185;-68
2022/05/10 02:59:59;;;;;;;11.88;5.88;;;13.40;93.90;;;;;;2216276;64;20206;-68
2022/05/10 03:02:43;;;;;;;10.70;5.85;;;13.40;93.90;;;;;;2216175;64;20217;-68
2022/05/10 03:05:21;;;;;;;16.77;7.07;;;13.40;94.10;;;;;;2216117;64;20152;-68
2022/05/10 03:08:06;;;;;;;10.05;6.28;;;13.40;94.00;;;;;;2215653;64;20186;-68
2022/05/10 03:10:45;;;;;;;8.45;5.55;;;13.40;94.10;;;;;;2216040;64;20194;-68
2022/05/10 03:13:26;;;;;;;11.38;7.18;;;13.40;94.10;;;;;;2216050;64;20740;-68
2022/05/10 03:16:06;;;;;;;11.43;6.05;;;13.30;94.10;;;;;;2215992;64;20186;-68
2022/05/10 03:18:44;;;;;;;9.15;5.97;;;13.40;94.20;;;;;;2216049;64;20781;-69
2022/05/10 03:21:21;;;;;;;8.07;6.00;;;13.30;94.20;;;;;;2215846;64;20190;-69
2022/05/10 03:23:59;;;;;;;11.40;6.22;;;13.30;94.20;;;;;;2216065;64;20172;-68
2022/05/10 03:26:38;;;;;;;9.55;6.55;;;13.40;94.30;;;;;;2216122;64;20194;-67
2022/05/10 03:29:15;;;;;;;12.68;6.18;;;13.40;94.30;;;;;;2215992;64;20168;-68
2022/05/10 03:31:55;;;;;;;12.98;6.95;;;13.30;94.30;;;;;;2215880;64;20236;-69
2022/05/10 03:37:31;;;;;;;11.98;7.00;;;13.30;94.40;;;;;;2215984;64;20176;-69
2022/05/10 03:40:10;;;;;;;11.80;7.00;;;13.30;94.40;;;;;;2216016;64;20654;-69
2022/05/10 03:42:52;;;;;;;12.18;6.35;;;13.30;94.30;;;;;;2215978;64;20181;-69
2022/05/10 03:45:29;;;;;;;11.05;6.15;;;13.40;94.30;;;;;;2215392;64;20202;-68
2022/05/10 03:48:10;;;;;;;13.82;6.95;;;13.40;94.30;;;;;;2215872;64;20723;-68
2022/05/10 03:50:49;;;;;;;11.27;7.00;;;13.40;94.20;;;;;;2215858;64;20155;-68
2022/05/10 03:53:26;;;;;;;10.30;7.28;;;13.40;94.10;;;;;;2215874;64;20590;-69
2022/05/10 03:56:04;;;;;;;8.18;6.47;;;13.50;94.10;;;;;;2215697;64;20264;-68
2022/05/10 03:58:40;;;;;;;11.98;7.00;;;13.50;94.00;;;;;;2215858;64;20168;-68
2022/05/10 04:01:19;;;;;;;14.05;6.78;;;13.60;94.00;;;;;;2215899;64;20324;-70
2022/05/10 04:03:55;;;;;;;12.95;7.28;;;13.60;93.90;;;;;;2215726;64;20235;-70
2022/05/10 04:06:33;;;;;;;14.00;7.05;;;13.70;93.80;;;;;;2215763;64;20234;-69
2022/05/10 04:09:14;;;;;;;10.27;7.57;;;13.70;93.70;;;;;;2215833;64;20164;-68
2022/05/10 04:11:55;;;;;;;12.25;6.60;;;13.70;93.60;;;;;;2215727;64;20168;-68
2022/05/10 04:14:34;;;;;;;12.48;8.05;;;13.80;93.60;;;;;;2215767;64;20182;-68
2022/05/10 04:17:10;;;;;;;9.35;6.97;;;13.80;93.50;;;;;;2215766;64;20164;-69
2022/05/10 04:19:48;;;;;;;12.50;8.13;;;13.90;93.50;;;;;;2215682;64;20298;-68
2022/05/10 04:22:29;;;;;;;11.02;6.68;;;13.80;93.50;;;;;;2215659;64;20277;-68
2022/05/10 04:25:12;;;;;;;13.43;7.57;;;13.90;93.40;;;;;;2215676;64;20274;-68
2022/05/10 04:27:49;;;;;;;12.35;7.68;;;14.00;93.50;;;;;;2215622;64;20592;-67
2022/05/10 04:30:26;;;;;;;11.95;7.22;;;13.90;93.40;;;;;;2215628;64;20301;-69
2022/05/10 04:33:02;;;;;;;10.68;7.20;;;13.90;93.40;;;;;;2215568;64;20221;-68
2022/05/10 04:35:38;;;;;;;12.98;8.60;;;13.90;93.40;;;;;;2215546;64;20189;-69
2022/05/10 04:38:16;;;;;;;10.77;7.07;;;14.00;93.30;;;;;;2215605;64;20190;-69
2022/05/10 04:43:50;;;;;;;11.20;7.83;;;14.00;93.20;;;;;;2215536;64;20579;-68
2022/05/10 04:46:30;;;;;;;10.80;7.43;;;14.10;93.20;;;;;;2215171;64;20164;-68
2022/05/10 04:49:08;;;;;;;10.57;7.65;;;14.10;93.20;;;;;;2215543;64;20209;-69
2022/05/10 04:51:46;;;;;;;13.07;6.85;;;14.10;93.10;;;;;;2215466;64;20192;-69
2022/05/10 04:54:26;;;;;;;13.30;8.18;;;14.10;93.00;;;;;;2215410;64;20551;-69
2022/05/10 04:57:04;;;;;;;14.00;7.97;;;14.20;93.00;;;;;;2215267;64;20160;-69
2022/05/10 04:59:41;;;;;;;14.00;7.43;;;14.20;93.00;;;;;;2215457;64;20284;-69
2022/05/10 05:02:17;;;;;;;11.82;7.47;;;14.30;93.00;;;;;;2215424;64;20164;-68
2022/05/10 05:04:56;;;;;;;13.60;7.50;;;14.40;93.00;;;;;;2215469;64;20172;-67
2022/05/10 05:07:35;;;;;;;12.20;7.68;;;14.30;92.90;;;;;;2215378;64;20164;-68
2022/05/10 05:10:14;;;;;;;17.80;7.90;;;14.30;92.80;;;;;;2215395;64;20211;-68
2022/05/10 05:12:56;;;;;;;19.88;8.85;;;14.40;92.80;;;;;;2215411;64;20665;-69
2022/05/10 05:15:36;;;;;;;20.63;9.35;;;14.50;92.70;;;;;;2215301;64;20186;-69
2022/05/10 05:18:16;;;;;;;14.07;7.82;;;14.50;92.70;;;;;;2215327;64;20806;-69
2022/05/10 05:20:57;;;;;;;15.77;8.30;;;14.60;92.60;;;;;;2215374;64;20662;-68
2022/05/10 05:23:38;;;;;;;12.45;8.20;;;14.60;92.40;;;;;;2215366;64;20238;-68
2022/05/10 05:26:22;;;;;;;17.52;9.38;;;14.70;92.30;;;;;;2215415;64;20164;-68
2022/05/10 05:29:01;;;;;;;15.18;8.40;;;14.80;92.10;;;;;;2215330;64;20236;-68
2022/05/10 05:31:38;;;;;;;14.23;7.28;;;14.90;91.90;;;;;;2215401;64;20190;-69
2022/05/10 05:34:15;;;;;;;13.07;7.45;;;14.90;91.50;;;;;;2215253;64;20281;-69
2022/05/10 05:39:46;;;;;;;12.98;7.53;;;15.20;91.10;;;;;;2215188;64;20623;-68
2022/05/10 05:42:25;;;;;;;14.43;8.40;;;15.30;90.80;;;;;;2215324;64;20755;-69
2022/05/10 05:45:22;;;;;;;;;;;15.30;90.60;;;;;;2215623;64;20186;-70
2022/05/10 05:48:00;;;;;;;16.63;8.18;;;15.40;90.50;;;;;;2215192;64;20609;-68
2022/05/10 05:50:39;;;;;;;12.82;8.07;;;15.50;90.30;;;;;;2215255;64;20707;-70
2022/05/10 05:53:16;;;;;;;11.00;7.68;;;15.50;90.20;;;;;;2215217;64;20391;-69
2022/05/10 05:55:53;;;;;;;13.02;8.50;;;15.70;90.00;;;;;;2215098;64;20204;-69
2022/05/10 05:58:30;;;;;;;14.05;8.02;;;15.70;90.00;;;;;;2215050;64;20168;-70
2022/05/10 06:01:30;;;;;;;13.10;9.32;;;15.70;90.00;;;;;;2214760;64;20164;-68
2022/05/10 06:04:07;;;;;;;15.40;8.38;;;15.70;90.00;;;;;;2214485;64;20169;-69
2022/05/10 06:06:46;;;;;;;20.23;8.30;;;15.80;90.00;;;;;;2214771;64;20168;-68
2022/05/10 06:09:25;;;;;;;13.70;8.05;;;15.80;89.70;;;;;;2214905;64;20703;-68
2022/05/10 06:12:03;;;;;;;12.93;8.63;;;15.90;89.80;;;;;;2214769;64;20219;-68
2022/05/10 06:14:40;;;;;;;14.13;8.52;;;16.00;89.40;;;;;;2214822;64;20304;-70
2022/05/10 06:17:17;;;;;;;16.55;8.80;;;16.00;89.20;;;;;;2215118;64;20235;-69
2022/05/10 06:19:54;;;;;;;14.32;8.98;;;16.10;89.00;;;;;;2214994;64;20682;-69
2022/05/10 06:22:32;;;;;;;13.88;8.23;;;16.20;88.60;;;;;;2215088;64;20195;-69
2022/05/10 06:25:17;;;;;;;10.80;7.85;;;16.40;88.30;;;;;;2215095;64;20641;-70
2022/05/10 06:27:55;;;;;;;12.25;7.75;;;16.50;87.80;;;;;;2214608;64;20185;-69
2022/05/10 06:30:32;;;;;;;13.90;7.82;;;16.60;87.70;;;;;;2215045;64;20730;-69
2022/05/10 06:33:11;;;;;;;13.40;7.90;;;17.10;87.70;;;;;;2215009;64;20232;-69
2022/05/10 06:35:53;;;;;;;17.15;8.32;;;16.90;86.80;;;;;;2214939;64;20168;-70
2022/05/10 06:38:34;;;;;;;10.98;7.43;;;17.10;86.30;;;;;;2215003;64;20638;-68
2022/05/10 06:41:10;;;;;;;12.77;7.07;;;17.20;86.00;;;;;;2215040;64;20156;-69
2022/05/10 06:43:49;;;;;;;10.98;6.90;;;17.30;85.90;;;;;;2214960;64;20181;-70
2022/05/10 06:46:31;;;;;;;13.23;7.72;;;17.50;85.50;;;;;;2214915;64;20294;-68
2022/05/10 06:49:09;;;;;;;14.18;6.72;;;17.70;85.00;;;;;;2214891;64;20156;-67
2022/05/10 06:51:50;;;;;;;10.93;6.93;;;17.80;83.70;;;;;;2214745;64;20209;-70
2022/05/10 06:54:30;;;;;;;15.40;7.30;;;18.00;82.70;;;;;;2214787;64;20185;-70
2022/05/10 06:57:07;;;;;;;10.40;6.70;;;18.20;82.10;;;;;;2214824;64;20172;-70
2022/05/10 06:59:45;;;;;;;11.02;6.15;;;18.30;81.90;;;;;;2214509;64;20215;-72
2022/05/10 07:02:24;;;;;;;7.32;5.90;;;18.50;81.20;;;;;;2214811;64;20160;-68
2022/05/10 07:05:01;;;;;;;15.88;6.82;;;18.60;80.30;;;;;;2214946;64;20168;-68
2022/05/10 07:07:38;;;;;;;11.80;6.70;;;18.70;80.00;;;;;;2215113;64;20168;-68
2022/05/10 07:10:19;;;;;;;8.43;6.13;;;18.90;79.80;;;;;;2215423;64;20164;-71
2022/05/10 07:12:58;;;;;;;8.85;5.57;;;18.90;79.10;;;;;;2216034;64;20587;-70
2022/05/10 07:15:37;;;;;;;10.40;5.65;;;19.10;78.90;;;;;;2216054;64;20704;-69
2022/05/10 07:18:13;;;;;;;7.88;5.45;;;19.20;78.70;;;;;;2216104;64;20296;-71
2022/05/10 07:20:51;;;;;;;9.25;4.97;;;19.40;78.20;;;;;;2216223;64;20189;-70
2022/05/10 07:23:31;;;;;;;6.05;5.13;;;19.50;77.40;;;;;;2216206;64;20551;-71
2022/05/10 07:26:09;;;;;;;10.38;5.22;;;19.60;76.70;;;;;;2216175;64;20578;-70
2022/05/10 07:28:48;;;;;;;9.57;5.65;;;19.70;76.20;;;;;;2216083;64;20164;-70
2022/05/10 07:31:25;;;;;;;8.35;5.38;;;19.80;75.40;;;;;;2216153;64;20168;-70
2022/05/10 07:34:05;;;;;;;10.45;5.80;;;19.90;74.90;;;;;;2216270;64;20529;-68
2022/05/10 07:36:45;;;;;;;9.40;5.45;;;20.00;74.60;;;;;;2216186;64;20227;-71
2022/05/10 07:39:26;;;;;;;8.60;5.90;;;20.20;74.30;;;;;;2213650;64;20172;-71
2022/05/10 07:42:07;;;;;;;7.88;5.15;;;20.30;73.70;;;;;;2215997;64;20277;-70
2022/05/10 07:44:45;;;;;;;10.65;6.20;;;20.50;72.60;;;;;;2215928;64;20280;-71
2022/05/10 07:47:24;;;;;;;10.30;6.05;;;20.60;72.20;;;;;;2215923;64;20180;-71
2022/05/10 07:50:01;;;;;;;11.55;6.38;;;20.70;71.50;;;;;;2215841;64;20160;-72
2022/05/10 07:52:40;;;;;;;12.57;5.65;;;20.90;70.80;;;;;;2215848;64;20193;-70
2022/05/10 07:55:18;;;;;;;11.55;5.50;;;21.00;69.40;;;;;;2215781;64;20192;-70
2022/05/10 07:57:58;;;;;;;14.52;5.82;;;21.00;69.70;;;;;;2215728;64;20163;-70
2022/05/10 08:00:36;;;;;;;11.70;5.00;;;21.10;68.90;;;;;;2215779;64;20152;-70
2022/05/10 08:03:16;;;;;;;8.82;4.47;;;21.10;68.30;;;;;;2215827;64;20168;-70
2022/05/10 08:05:57;;;;;;;11.30;4.40;;;21.30;68.30;;;;;;2215735;64;20185;-71
2022/05/10 08:08:50;;;;;;;9.68;4.47;;;21.40;67.40;;;;;;2215759;64;20299;-69
2022/05/10 08:11:28;;;;;;;8.55;4.60;;;21.50;67.10;;;;;;2215688;64;20193;-70
2022/05/10 08:14:08;;;;;;;7.47;4.10;;;21.50;66.60;;;;;;2215839;64;20304;-72
2022/05/10 08:16:46;;;;;;;8.85;4.38;;;21.60;66.50;;;;;;2215657;64;20185;-69
2022/05/10 08:19:27;;;;;;;7.40;4.63;;;21.70;66.30;;;;;;2215756;64;20198;-69
2022/05/10 08:22:06;;;;;;;7.75;4.47;;;21.70;65.40;;;;;;2215297;64;20684;-71
2022/05/10 08:24:43;;;;;;;13.13;4.43;;;21.80;65.30;;;;;;2215657;64;20172;-68
2022/05/10 08:27:21;;;;;;;12.25;5.72;;;21.80;65.00;;;;;;2215712;64;20692;-67
2022/05/10 08:30:00;;;;;;;5.32;4.30;;;21.80;65.10;;;;;;2215641;64;20309;-70
2022/05/10 08:32:36;;;;;;;10.05;4.88;;;21.80;65.30;;;;;;2215648;64;20262;-70
2022/05/10 08:35:14;;;;;;;10.25;4.45;;;21.90;65.00;;;;;;2215598;64;20634;-72
2022/05/10 08:37:54;;;;;;;10.68;4.50;;;21.80;65.80;;;;;;2215555;64;20301;-68
2022/05/10 08:40:35;;;;;;;8.18;3.67;;;21.80;65.90;;;;;;2215593;64;20191;-69
2022/05/10 08:43:37;;;;;;;10.10;3.88;;;21.90;65.20;;;;;;2215589;64;20212;-70
2022/05/10 08:46:32;;;;;;;8.40;3.60;;;22.20;64.30;;;;;;2215612;64;20181;-71
2022/05/10 08:49:31;;;;;;;13.73;4.50;;;22.30;64.10;;;;;;2215554;64;20156;-68
2022/05/10 08:52:10;;;;;;;5.35;3.47;;;22.40;64.30;;;;;;2215539;64;20194;-71
2022/05/10 08:54:49;;;;;;;5.60;3.40;;;22.50;64.20;;;;;;2215435;64;20248;-69
2022/05/10 08:57:45;;;;;;;4.18;3.63;;;22.50;64.10;;;;;;2215479;64;20194;-70
2022/05/10 09:00:24;;;;;;;;;;;22.60;63.50;;;;;;2215912;64;20215;-69
2022/05/10 09:03:17;;;;;;;5.65;3.72;;;22.60;63.60;;;;;;2215482;64;20035;-72
2022/05/10 09:06:00;;;;;;;6.60;3.55;;;22.70;63.20;;;;;;2215422;64;20168;-69
2022/05/10 09:08:54;;;;;;;9.77;3.67;;;22.70;62.40;;;;;;2215406;64;20228;-70
2022/05/10 09:12:04;;;;;;;14.98;3.78;;;22.80;62.10;;;;;;2215395;64;20658;-69
2022/05/10 09:15:06;;;;;;;6.13;3.20;;;22.80;61.60;;;;;;2215295;64;20654;-72
2022/05/10 09:17:43;;;;;;;9.82;3.40;;;22.90;61.40;;;;;;2203058;64;20186;-70
2022/05/10 09:20:20;;;;;;;14.40;3.60;;;22.90;60.80;;;;;;2215438;64;20702;-72
2022/05/10 09:23:19;;;;;;;10.73;2.70;;;22.90;61.10;;;;;;2215354;64;20303;-71
2022/05/10 09:25:59;;;;;;;9.18;3.83;;;23.00;60.80;;;;;;2215457;64;20163;-72
2022/05/10 09:28:44;;;;;;;8.32;3.63;;;23.10;60.70;;;;;;2215542;64;20168;-71
2022/05/10 09:34:45;;;;;;;9.63;3.70;;;23.30;59.60;;;;;;2215285;64;20578;-71
2022/05/10 09:37:30;;;;;;;9.15;3.42;;;23.40;59.50;;;;;;2215493;64;20168;-72
2022/05/10 09:40:19;;;;;;;16.38;4.13;;;23.50;59.30;;;;;;2215217;64;20743;-71
2022/05/10 09:43:25;;;;;;;45.67;7.60;;;23.50;58.80;;;;;;2215301;64;20156;-71
2022/05/10 09:46:24;;;;;;;36.33;6.22;;;23.70;58.50;;;;;;2215248;64;20362;-68
2022/05/10 09:49:01;;;;;;;8.98;3.30;;;23.80;58.40;;;;;;2215283;64;20301;-71
2022/05/10 09:51:39;;;;;;;17.80;5.05;;;23.90;58.40;;;;;;2215292;64;20182;-70
2022/05/10 09:54:28;;;;;;;13.50;4.50;;;24.20;57.60;;;;;;2215194;64;20312;-71
2022/05/10 09:57:27;;;;;;;12.77;4.25;;;24.40;57.30;;;;;;2215068;64;20214;-69
2022/05/10 10:00:13;;;;;;;15.15;4.10;;;24.50;56.40;;;;;;2215272;64;20206;-71
2022/05/10 10:02:58;;;;;;;18.73;5.80;;;24.30;56.40;;;;;;2215068;64;20694;-69
2022/05/10 10:05:39;;;;;;;5.13;3.75;;;24.00;57.10;;;;;;2215150;64;20152;-69
2022/05/10 10:08:19;;;;;;;11.68;5.07;;;23.80;57.60;;;;;;2215115;64;20205;-69
2022/05/10 10:10:59;;;;;;;15.15;4.88;;;23.60;57.80;;;;;;2215144;64;20242;-70
2022/05/10 10:13:40;;;;;;;9.05;3.97;;;23.70;58.20;;;;;;2215087;64;20161;-70
2022/05/10 10:16:24;;;;;;;9.93;4.60;;;23.70;58.10;;;;;;2215057;64;20186;-71
2022/05/10 10:19:32;;;;;;;13.85;5.43;;;23.70;58.20;;;;;;2215038;64;20177;-72
2022/05/10 10:22:22;;;;;;;7.93;4.43;;;23.80;58.30;;;;;;2215030;64;20357;-71
2022/05/10 10:25:33;;;;;;;14.90;5.13;;;24.00;58.10;;;;;;2215048;64;20675;-68
2022/05/10 10:28:33;;;;;;;13.77;5.25;;;24.10;58.00;;;;;;2214868;64;20699;-66
2022/05/10 10:31:27;;;;;;;7.82;4.55;;;24.30;57.90;;;;;;2214845;64;20168;-68
2022/05/10 10:34:19;;;;;;;12.27;5.70;;;24.60;57.70;;;;;;2215142;64;20180;-68
2022/05/10 10:37:22;;;;;;;9.37;5.13;;;24.50;57.60;;;;;;2214946;64;20237;-69
2022/05/10 10:40:30;;;;;;;13.77;5.85;;;24.50;58.10;;;;;;2214947;64;20499;-68
2022/05/10 10:43:29;;;;;;;9.63;5.07;;;24.60;58.20;;;;;;2214987;64;20160;-68
2022/05/10 10:46:33;;;;;;;9.85;5.32;;;24.70;57.80;;;;;;2215976;64;20317;-69
2022/05/10 10:49:15;;;;;;;16.90;6.35;;;24.80;57.70;;;;;;2216225;64;20188;-70
2022/05/10 10:51:52;;;;;;;10.90;5.40;;;24.70;57.50;;;;;;2216339;64;20190;-71
2022/05/10 10:54:32;;;;;;;12.63;5.50;;;24.50;57.60;;;;;;2216190;64;20233;-69
2022/05/10 10:57:48;;;;;;;7.18;5.90;;;24.40;58.60;;;;;;2216052;64;20227;-69
2022/05/10 11:00:35;;;;;;;11.40;5.97;;;24.50;58.90;;;;;;2216134;64;20186;-70
2022/05/10 11:03:40;;;;;;;12.23;6.95;;;24.30;59.00;;;;;;2216234;64;20216;-69
2022/05/10 11:06:27;;;;;;;9.20;6.30;;;24.20;59.90;;;;;;2216110;64;20192;-69
2022/05/10 11:09:53;;;;;;;11.40;6.68;;;24.00;60.20;;;;;;2216160;64;20213;-70
2022/05/10 11:12:55;;;;;;;9.65;4.70;;;23.80;62.40;;;;;;2177151;65;20282;-67
2022/05/10 11:15:37;;;;;;;8.80;4.60;;;23.20;62.20;;;;;;2177064;65;20167;-67
2022/05/10 11:18:30;;;;;;;6.07;4.15;;;23.20;62.00;;;;;;2177185;65;20163;-70
2022/05/10 11:21:28;;;;;;;10.52;4.15;;;23.30;61.50;;;;;;2177167;65;20420;-68
2022/05/10 11:24:26;;;;;;;11.50;3.53;;;23.30;59.10;;;;;;2177090;65;20287;-69
2022/05/10 11:27:14;;;;;;;6.00;2.90;;;23.30;57.80;;;;;;2177071;65;20228;-68
2022/05/10 11:30:14;;;;;;;7.85;3.60;;;23.50;57.70;;;;;;2177165;65;20193;-69
2022/05/10 11:33:40;;;;;;;5.63;3.17;;;23.80;56.80;;;;;;2177039;65;20167;-67
2022/05/10 11:36:27;;;;;;;10.50;3.72;;;23.90;56.90;;;;;;2177011;65;20619;-68
2022/05/10 11:39:28;;;;;;;8.95;4.20;;;24.00;57.10;;;;;;2177117;65;20294;-67
2022/05/10 11:42:21;;;;;;;10.52;4.60;;;24.10;57.10;;;;;;2176985;65;20636;-68
2022/05/10 11:45:14;;;;;;;11.52;4.50;;;24.40;56.30;;;;;;2176967;65;20253;-68
2022/05/10 11:48:13;;;;;;;18.00;5.43;;;24.50;56.10;;;;;;2215811;64;20736;-68
2022/05/10 11:51:42;;;;;;;8.35;4.75;;;24.50;56.00;;;;;;2215818;64;20197;-68
2022/05/10 11:54:39;;;;;;;11.32;5.03;;;24.20;57.20;;;;;;2215310;64;20584;-68
2022/05/10 11:57:18;;;;;;;11.00;4.60;;;24.10;57.60;;;;;;2215347;64;20160;-69
2022/05/10 12:00:27;;;;;;;6.80;4.80;;;24.30;58.00;;;;;;2215480;64;20160;-69
2022/05/10 12:03:05;;;;;;;8.77;5.47;;;24.80;57.30;;;;;;2215485;64;20168;-70
2022/05/10 12:05:42;;;;;;;9.05;5.25;;;25.70;56.30;;;;;;2215427;64;20176;-73
2022/05/10 12:08:19;;;;;;;7.78;5.80;;;26.30;55.40;;;;;;2215486;64;20188;-70
2022/05/10 12:10:57;;;;;;;19.48;6.80;;;26.50;55.00;;;;;;2215431;64;20185;-71
2022/05/10 12:22:46;;;;;;;16.30;8.65;;;25.80;56.00;;;;;;2215344;64;20277;-72
2022/05/10 12:26:02;;;;;;;10.40;7.07;;;25.80;56.30;;;;;;2215280;64;20171;-72
2022/05/10 12:28:49;;;;;;;13.07;7.32;;;25.60;56.70;;;;;;2215215;64;20696;-73
2022/05/10 12:31:34;;;;;;;10.95;5.70;;;25.40;57.00;;;;;;2215117;64;20164;-72
2022/05/10 12:34:46;;;;;;;14.10;6.03;;;25.20;56.80;;;;;;2215335;64;20172;-68
2022/05/10 12:37:24;;;;;;;10.80;5.80;;;25.10;57.40;;;;;;2215256;64;20273;-70
2022/05/10 12:40:09;;;;;;;8.52;5.15;;;24.90;56.90;;;;;;2215326;64;20212;-70
2022/05/10 12:43:06;;;;;;;10.95;5.00;;;25.00;57.20;;;;;;2215315;64;20276;-68
2022/05/10 12:46:09;;;;;;;8.18;4.50;;;24.80;57.60;;;;;;2215202;64;20176;-71
2022/05/10 12:49:10;;;;;;;8.82;4.53;;;24.50;58.00;;;;;;2215324;64;20194;-69
2022/05/10 12:52:12;;;;;;;11.13;4.25;;;24.30;58.30;;;;;;2215222;64;20249;-70
2022/05/10 12:54:57;;;;;;;16.70;4.40;;;24.10;57.90;;;;;;2215202;64;20194;-70
2022/05/10 12:57:52;;;;;;;15.07;3.75;;;23.80;56.60;;;;;;2215099;64;20186;-69
2022/05/10 13:00:40;;;;;;;6.65;3.05;;;23.70;56.50;;;;;;2215250;64;20185;-70
2022/05/10 13:03:25;;;;;;;9.73;3.30;;;23.60;56.20;;;;;;2215290;64;20160;-71
2022/05/10 13:06:15;;;;;;;17.65;3.08;;;23.70;54.70;;;;;;2215207;64;20281;-70
2022/05/10 13:09:27;;;;;;;10.88;3.03;;;23.70;54.00;;;;;;2214878;64;20212;-70
2022/05/10 13:12:18;;;;;;;14.07;3.17;;;23.60;53.50;;;;;;2176164;65;20175;-71
2022/05/10 13:15:02;;;;;;;4.28;2.58;;;23.50;53.10;;;;;;2176182;65;20550;-70
2022/05/10 13:17:55;;;;;;;12.10;3.28;;;24.00;53.20;;;;;;2176228;65;20857;-72
2022/05/10 13:20:47;;;;;;;9.70;3.22;;;23.50;52.50;;;;;;2176219;65;20321;-71
2022/05/10 13:23:34;;;;;;;9.57;2.78;;;23.50;52.30;;;;;;2176194;65;20155;-70
2022/05/10 13:26:15;;;;;;;10.20;2.15;;;23.30;52.80;;;;;;2176229;65;20164;-67
2022/05/10 13:29:01;;;;;;;4.95;2.33;;;23.30;53.00;;;;;;2176110;65;20251;-71
2022/05/10 13:31:40;;;;;;;7.20;2.30;;;23.20;52.60;;;;;;2176192;65;20183;-71
2022/05/10 13:34:23;;;;;;;10.85;2.50;;;23.10;53.10;;;;;;2176150;65;20204;-71
2022/05/10 13:37:03;;;;;;;6.18;1.90;;;22.90;51.50;;;;;;2176089;65;20163;-71
2022/05/10 13:39:42;;;;;;;8.32;2.65;;;22.80;52.00;;;;;;2176099;65;20324;-70
2022/05/10 13:42:26;;;;;;;10.43;1.98;;;22.80;52.00;;;;;;2169966;65;20361;-72
2022/05/10 13:45:06;;;;;;;5.05;1.30;;;22.80;51.80;;;;;;2176056;65;20171;-71
2022/05/10 13:48:26;;;;;;;4.70;1.10;;;22.90;50.20;;;;;;2199946;64;20172;-72
2022/05/10 13:51:52;;;;;;;7.47;1.55;;;22.80;47.00;;;;;;2191158;65;20154;-70
2022/05/10 13:54:38;;;;;;;5.55;1.50;;;22.70;47.50;;;;;;2191059;65;20818;-72
2022/05/10 13:57:30;;;;;;;2.47;0.90;;;22.80;46.70;;;;;;2194908;65;20165;-69
2022/05/10 14:00:18;;;;;;;5.78;1.10;;;23.10;46.90;;;;;;2198658;65;20646;-71
2022/05/10 14:02:57;;;;;;;3.05;1.00;;;22.90;47.00;;;;;;2198568;65;20205;-72
2022/05/10 14:05:35;;;;;;;8.35;1.38;;;22.90;46.80;;;;;;2198416;65;20573;-70
2022/05/10 14:08:20;;;;;;;4.90;1.00;;;22.70;46.20;;;;;;2198412;65;20191;-71
2022/05/10 14:11:10;;;;;;;6.18;1.27;;;22.60;46.30;;;;;;2198648;65;20184;-70
2022/05/10 14:13:55;;;;;;;3.13;0.90;;;22.30;45.10;;;;;;2198438;65;20165;-71
2022/05/10 14:16:40;;;;;;;2.65;1.35;;;22.00;46.00;;;;;;2198351;65;20158;-73
2022/05/10 14:19:44;;;;;;;6.57;1.48;;;21.70;47.50;;;;;;2198560;65;20214;-71
2022/05/10 14:22:27;;;;;;;5.72;1.00;;;21.50;48.50;;;;;;2208095;64;20172;-71
2022/05/10 14:25:05;;;;;;;2.63;1.17;;;21.40;49.70;;;;;;2216145;64;20586;-71
2022/05/10 14:28:33;;;;;;;3.30;1.23;;;21.40;50.90;;;;;;2216044;64;20181;-70
2022/05/10 14:31:28;;;;;;;3.10;1.33;;;21.30;52.00;;;;;;2215968;64;20164;-71
2022/05/10 14:34:15;;;;;;;3.77;1.47;;;21.30;52.80;;;;;;2216101;64;20189;-72
2022/05/10 14:36:53;;;;;;;5.63;2.25;;;21.00;53.10;;;;;;2216049;64;20314;-71
2022/05/10 14:39:33;;;;;;;4.55;1.58;;;20.90;53.70;;;;;;2215973;64;20193;-71